sensor_id;sensor_type;location;lat;lon;timestamp;pressure;altitude;pressure_sealevel;temperature;humidity
19736;BME280;32064;49.310;8.646;2023-07-31T00:02:20;100480.50;;;21.95;60.16
19736;BME280;32064;49.310;8.646;2023-07-31T00:04:45;100482.34;;;21.94;60.03
19736;BME280;32064;49.310;8.646;2023-07-31T00:07:11;100480.50;;;21.95;59.13
19736;BME280;32064;49.310;8.646;2023-07-31T00:09:36;100480.88;;;21.92;59.28
19736;BME280;32064;49.310;8.646;2023-07-31T00:12:01;100479.53;;;21.88;60.16
19736;BME280;32064;49.310;8.646;2023-07-31T00:14:27;100485.56;;;21.90;59.54
19736;BME280;32064;49.310;8.646;2023-07-31T00:16:52;100486.22;;;21.92;59.28
19736;BME280;32064;49.310;8.646;2023-07-31T00:19:18;100483.09;;;21.88;59.71
19736;BME280;32064;49.310;8.646;2023-07-31T00:21:44;100485.75;;;21.88;59.55
19736;BME280;32064;49.310;8.646;2023-07-31T00:24:09;100474.75;;;21.83;59.84
19736;BME280;32064;49.310;8.646;2023-07-31T00:26:35;100478.06;;;21.85;60.14
19736;BME280;32064;49.310;8.646;2023-07-31T00:29:00;100470.22;;;21.84;59.47
19736;BME280;32064;49.310;8.646;2023-07-31T00:31:26;100471.41;;;21.81;59.55
19736;BME280;32064;49.310;8.646;2023-07-31T00:33:52;100466.03;;;21.81;59.67
19736;BME280;32064;49.310;8.646;2023-07-31T00:36:17;100466.72;;;21.83;59.04
19736;BME280;32064;49.310;8.646;2023-07-31T00:38:43;100463.84;;;21.85;59.00
19736;BME280;32064;49.310;8.646;2023-07-31T00:41:09;100454.97;;;21.84;59.44
19736;BME280;32064;49.310;8.646;2023-07-31T00:43:34;100465.31;;;21.87;59.10
19736;BME280;32064;49.310;8.646;2023-07-31T00:46:00;100455.78;;;21.85;59.60
19736;BME280;32064;49.310;8.646;2023-07-31T00:48:26;100469.03;;;21.86;59.06
19736;BME280;32064;49.310;8.646;2023-07-31T00:50:51;100457.28;;;21.87;59.09
19736;BME280;32064;49.310;8.646;2023-07-31T00:53:17;100459.31;;;21.85;59.02
19736;BME280;32064;49.310;8.646;2023-07-31T00:55:42;100458.47;;;21.85;58.94
19736;BME280;32064;49.310;8.646;2023-07-31T00:58:08;100452.47;;;21.83;59.51
19736;BME280;32064;49.310;8.646;2023-07-31T01:00:33;100454.13;;;21.84;58.82
19736;BME280;32064;49.310;8.646;2023-07-31T01:02:59;100448.78;;;21.84;59.03
19736;BME280;32064;49.310;8.646;2023-07-31T01:05:33;100446.25;;;21.82;58.92
19736;BME280;32064;49.310;8.646;2023-07-31T01:08:14;100444.63;;;21.81;59.64
19736;BME280;32064;49.310;8.646;2023-07-31T01:10:57;100441.28;;;21.79;58.87
19736;BME280;32064;49.310;8.646;2023-07-31T01:13:25;100443.78;;;21.81;59.26
19736;BME280;32064;49.310;8.646;2023-07-31T01:15:51;100434.72;;;21.82;59.30
19736;BME280;32064;49.310;8.646;2023-07-31T01:18:16;100439.09;;;21.83;58.94
19736;BME280;32064;49.310;8.646;2023-07-31T01:20:42;100439.09;;;21.83;58.94
19736;BME280;32064;49.310;8.646;2023-07-31T01:23:26;100441.28;;;21.79;59.64
19736;BME280;32064;49.310;8.646;2023-07-31T01:26:03;100441.94;;;21.81;60.31
19736;BME280;32064;49.310;8.646;2023-07-31T01:28:40;100433.91;;;21.81;59.83
19736;BME280;32064;49.310;8.646;2023-07-31T01:31:12;100434.72;;;21.82;59.00
19736;BME280;32064;49.310;8.646;2023-07-31T01:33:40;100425.88;;;21.81;59.12
19736;BME280;32064;49.310;8.646;2023-07-31T01:36:05;100435.09;;;21.79;59.86
19736;BME280;32064;49.310;8.646;2023-07-31T01:38:31;100426.03;;;21.80;59.41
19736;BME280;32064;49.310;8.646;2023-07-31T01:40:57;100421.53;;;21.80;59.30
19736;BME280;32064;49.310;8.646;2023-07-31T01:43:22;100414.31;;;21.81;58.78
19736;BME280;32064;49.310;8.646;2023-07-31T01:45:49;100421.53;;;21.80;58.60
19736;BME280;32064;49.310;8.646;2023-07-31T01:48:14;100414.31;;;21.81;59.77
19736;BME280;32064;49.310;8.646;2023-07-31T01:50:40;100415.97;;;21.82;59.07
19736;BME280;32064;49.310;8.646;2023-07-31T01:53:05;100408.59;;;21.84;59.36
19736;BME280;32064;49.310;8.646;2023-07-31T01:55:31;100407.13;;;21.81;59.18
19736;BME280;32064;49.310;8.646;2023-07-31T01:57:56;100406.66;;;21.78;59.24
19736;BME280;32064;49.310;8.646;2023-07-31T02:00:21;100408.13;;;21.80;58.83
19736;BME280;32064;49.310;8.646;2023-07-31T02:02:47;100410.31;;;21.77;59.05
19736;BME280;32064;49.310;8.646;2023-07-31T02:05:12;100410.16;;;21.78;58.67
19736;BME280;32064;49.310;8.646;2023-07-31T02:07:37;100410.81;;;21.80;59.14
19736;BME280;32064;49.310;8.646;2023-07-31T02:10:03;100407.47;;;21.78;59.44
19736;BME280;32064;49.310;8.646;2023-07-31T02:12:28;100405.63;;;21.79;59.18
19736;BME280;32064;49.310;8.646;2023-07-31T02:14:57;100400.94;;;21.81;59.17
19736;BME280;32064;49.310;8.646;2023-07-31T02:17:22;100393.06;;;21.79;59.67
19736;BME280;32064;49.310;8.646;2023-07-31T02:19:48;100394.75;;;21.80;58.64
19736;BME280;32064;49.310;8.646;2023-07-31T02:22:13;100385.22;;;21.78;59.12
19736;BME280;32064;49.310;8.646;2023-07-31T02:24:39;100391.41;;;21.78;59.79
19736;BME280;32064;49.310;8.646;2023-07-31T02:27:04;100386.03;;;21.78;59.11
19736;BME280;32064;49.310;8.646;2023-07-31T02:29:30;100383.72;;;21.75;59.84
19736;BME280;32064;49.310;8.646;2023-07-31T02:31:55;100388.25;;;21.74;59.46
19736;BME280;32064;49.310;8.646;2023-07-31T02:34:21;100390.13;;;21.74;59.34
19736;BME280;32064;49.310;8.646;2023-07-31T02:36:46;100386.56;;;21.73;60.78
19736;BME280;32064;49.310;8.646;2023-07-31T02:39:11;100378.91;;;21.70;59.75
19736;BME280;32064;49.310;8.646;2023-07-31T02:41:37;100384.91;;;21.72;59.81
19736;BME280;32064;49.310;8.646;2023-07-31T02:44:02;100385.94;;;21.71;60.04
19736;BME280;32064;49.310;8.646;2023-07-31T02:46:27;100379.94;;;21.69;60.47
19736;BME280;32064;49.310;8.646;2023-07-31T02:48:53;100374.94;;;21.66;59.75
19736;BME280;32064;49.310;8.646;2023-07-31T02:51:18;100382.97;;;21.66;59.51
19736;BME280;32064;49.310;8.646;2023-07-31T02:53:45;100380.66;;;21.63;59.79
19736;BME280;32064;49.310;8.646;2023-07-31T02:56:11;100377.31;;;21.61;60.76
19736;BME280;32064;49.310;8.646;2023-07-31T02:58:36;100376.66;;;21.59;60.34
19736;BME280;32064;49.310;8.646;2023-07-31T03:01:01;100374.34;;;21.56;60.36
19736;BME280;32064;49.310;8.646;2023-07-31T03:03:27;100374.03;;;21.51;60.56
19736;BME280;32064;49.310;8.646;2023-07-31T03:05:52;100384.13;;;21.49;60.95
19736;BME280;32064;49.310;8.646;2023-07-31T03:08:18;100383.81;;;21.44;61.20
19736;BME280;32064;49.310;8.646;2023-07-31T03:10:44;100377.44;;;21.45;60.68
19736;BME280;32064;49.310;8.646;2023-07-31T03:13:10;100366.63;;;21.38;60.53
19736;BME280;32064;49.310;8.646;2023-07-31T03:15:35;100365.94;;;21.36;61.41
19736;BME280;32064;49.310;8.646;2023-07-31T03:18:00;100380.50;;;21.34;61.21
19736;BME280;32064;49.310;8.646;2023-07-31T03:20:26;100381.06;;;21.29;60.99
19736;BME280;32064;49.310;8.646;2023-07-31T03:22:51;100385.91;;;21.25;60.84
19736;BME280;32064;49.310;8.646;2023-07-31T03:25:17;100383.94;;;21.19;62.00
19736;BME280;32064;49.310;8.646;2023-07-31T03:27:42;100372.09;;;21.14;61.73
19736;BME280;32064;49.310;8.646;2023-07-31T03:30:07;100387.50;;;21.12;62.51
19736;BME280;32064;49.310;8.646;2023-07-31T03:32:33;100380.31;;;21.12;62.67
19736;BME280;32064;49.310;8.646;2023-07-31T03:34:58;100375.34;;;21.09;62.63
19736;BME280;32064;49.310;8.646;2023-07-31T03:37:24;100381.88;;;21.06;62.57
19736;BME280;32064;49.310;8.646;2023-07-31T03:39:49;100380.84;;;21.07;62.50
19736;BME280;32064;49.310;8.646;2023-07-31T03:42:14;100382.03;;;21.05;61.86
19736;BME280;32064;49.310;8.646;2023-07-31T03:44:40;100372.97;;;21.06;62.30
19736;BME280;32064;49.310;8.646;2023-07-31T03:47:05;100375.03;;;21.04;62.94
19736;BME280;32064;49.310;8.646;2023-07-31T03:49:31;100365.84;;;20.98;62.86
19736;BME280;32064;49.310;8.646;2023-07-31T03:51:56;100369.72;;;20.96;62.55
19736;BME280;32064;49.310;8.646;2023-07-31T03:54:22;100369.88;;;20.94;63.73
19736;BME280;32064;49.310;8.646;2023-07-31T03:56:47;100373.72;;;20.92;63.39
19736;BME280;32064;49.310;8.646;2023-07-31T03:59:12;100368.56;;;20.90;62.81
19736;BME280;32064;49.310;8.646;2023-07-31T04:01:38;100373.72;;;20.92;63.20
19736;BME280;32064;49.310;8.646;2023-07-31T04:04:03;100372.75;;;20.93;63.33
19736;BME280;32064;49.310;8.646;2023-07-31T04:06:29;100370.06;;;20.93;63.20
19736;BME280;32064;49.310;8.646;2023-07-31T04:08:54;100372.91;;;20.91;62.94
19736;BME280;32064;49.310;8.646;2023-07-31T04:11:19;100375.22;;;20.94;63.56
19736;BME280;32064;49.310;8.646;2023-07-31T04:13:45;100381.75;;;20.92;62.77
19736;BME280;32064;49.310;8.646;2023-07-31T04:16:10;100379.94;;;20.92;63.11
19736;BME280;32064;49.310;8.646;2023-07-31T04:21:01;100376.22;;;21.01;62.97
19736;BME280;32064;49.310;8.646;2023-07-31T04:23:27;100373.34;;;21.03;62.90
19736;BME280;32064;49.310;8.646;2023-07-31T04:25:53;100372.16;;;21.05;62.69
19736;BME280;32064;49.310;8.646;2023-07-31T04:28:18;100381.19;;;21.04;62.30
19736;BME280;32064;49.310;8.646;2023-07-31T04:30:44;100381.88;;;21.06;63.19
19736;BME280;32064;49.310;8.646;2023-07-31T04:33:09;100376.31;;;21.08;62.44
19736;BME280;32064;49.310;8.646;2023-07-31T04:35:35;100375.13;;;21.11;61.90
19736;BME280;32064;49.310;8.646;2023-07-31T04:38:00;100373.28;;;21.11;62.63
19736;BME280;32064;49.310;8.646;2023-07-31T04:40:26;100367.78;;;21.13;62.10
19736;BME280;32064;49.310;8.646;2023-07-31T04:42:51;100364.09;;;21.14;62.18
19736;BME280;32064;49.310;8.646;2023-07-31T04:45:17;100357.06;;;21.13;62.00
19736;BME280;32064;49.310;8.646;2023-07-31T04:47:42;100360.22;;;21.16;62.20
19736;BME280;32064;49.310;8.646;2023-07-31T04:50:08;100356.34;;;21.19;61.94
19736;BME280;32064;49.310;8.646;2023-07-31T04:52:33;100354.16;;;21.22;62.28
19736;BME280;32064;49.310;8.646;2023-07-31T04:54:58;100366.53;;;21.23;62.78
19736;BME280;32064;49.310;8.646;2023-07-31T04:57:24;100364.50;;;21.25;62.09
19736;BME280;32064;49.310;8.646;2023-07-31T04:59:49;100361.00;;;21.25;62.54
19736;BME280;32064;49.310;8.646;2023-07-31T05:02:15;100357.78;;;21.29;62.13
19736;BME280;32064;49.310;8.646;2023-07-31T05:04:40;100353.63;;;21.27;62.86
19736;BME280;32064;49.310;8.646;2023-07-31T05:07:05;100363.63;;;21.33;62.51
19736;BME280;32064;49.310;8.646;2023-07-31T05:09:31;100362.09;;;21.39;61.84
19736;BME280;32064;49.310;8.646;2023-07-31T05:11:56;100371.41;;;21.43;62.18
19736;BME280;32064;49.310;8.646;2023-07-31T05:14:22;100365.44;;;21.41;61.99
19736;BME280;32064;49.310;8.646;2023-07-31T05:16:47;100363.22;;;21.44;62.29
19736;BME280;32064;49.310;8.646;2023-07-31T05:19:12;100364.88;;;21.45;62.32
19736;BME280;32064;49.310;8.646;2023-07-31T05:21:38;100358.69;;;21.45;62.09
19736;BME280;32064;49.310;8.646;2023-07-31T05:24:05;100354.31;;;21.52;62.66
19736;BME280;32064;49.310;8.646;2023-07-31T05:26:30;100353.75;;;21.57;61.99
19736;BME280;32064;49.310;8.646;2023-07-31T05:28:55;100353.13;;;21.55;62.47
19736;BME280;32064;49.310;8.646;2023-07-31T05:31:21;100350.69;;;21.60;61.69
19736;BME280;32064;49.310;8.646;2023-07-31T05:33:48;100353.22;;;21.61;62.08
19736;BME280;32064;49.310;8.646;2023-07-31T05:36:15;100354.41;;;21.59;62.44
19736;BME280;32064;49.310;8.646;2023-07-31T05:38:41;100356.56;;;21.63;61.45
19736;BME280;32064;49.310;8.646;2023-07-31T05:41:07;100365.22;;;21.65;61.79
19736;BME280;32064;49.310;8.646;2023-07-31T05:43:32;100354.81;;;21.70;62.07
19736;BME280;32064;49.310;8.646;2023-07-31T05:45:58;100361.84;;;21.71;61.60
19736;BME280;32064;49.310;8.646;2023-07-31T05:48:23;100364.16;;;21.74;62.11
19736;BME280;32064;49.310;8.646;2023-07-31T05:50:48;100365.34;;;21.72;61.69
19736;BME280;32064;49.310;8.646;2023-07-31T05:53:14;100360.72;;;21.66;61.52
19736;BME280;32064;49.310;8.646;2023-07-31T05:55:39;100361.34;;;21.68;61.62
19736;BME280;32064;49.310;8.646;2023-07-31T05:58:05;100360.53;;;21.67;62.26
19736;BME280;32064;49.310;8.646;2023-07-31T06:00:30;100356.00;;;21.68;61.46
19736;BME280;32064;49.310;8.646;2023-07-31T06:02:56;100358.13;;;21.72;62.66
19736;BME280;32064;49.310;8.646;2023-07-31T06:05:21;100355.28;;;21.74;61.67
19736;BME280;32064;49.310;8.646;2023-07-31T06:07:47;100351.50;;;21.68;61.84
19736;BME280;32064;49.310;8.646;2023-07-31T06:10:12;100358.13;;;21.72;61.59
19736;BME280;32064;49.310;8.646;2023-07-31T06:12:38;100356.75;;;21.77;61.11
19736;BME280;32064;49.310;8.646;2023-07-31T06:15:04;100358.81;;;21.74;61.56
19736;BME280;32064;49.310;8.646;2023-07-31T06:17:29;100359.06;;;21.80;61.39
19736;BME280;32064;49.310;8.646;2023-07-31T06:19:56;100356.22;;;21.81;60.96
19736;BME280;32064;49.310;8.646;2023-07-31T06:22:22;100344.97;;;21.86;61.95
19736;BME280;32064;49.310;8.646;2023-07-31T06:24:47;100352.28;;;21.92;61.42
19736;BME280;32064;49.310;8.646;2023-07-31T06:27:13;100342.84;;;21.96;60.41
19736;BME280;32064;49.310;8.646;2023-07-31T06:29:38;100351.16;;;22.01;61.50
19736;BME280;32064;49.310;8.646;2023-07-31T06:32:03;100350.78;;;22.04;61.43
19736;BME280;32064;49.310;8.646;2023-07-31T06:34:29;100347.75;;;22.07;60.54
19736;BME280;32064;49.310;8.646;2023-07-31T06:36:56;100340.34;;;22.09;61.02
19736;BME280;32064;49.310;8.646;2023-07-31T06:39:21;100345.06;;;22.07;60.94
19736;BME280;32064;49.310;8.646;2023-07-31T06:41:47;100344.91;;;22.09;61.01
19736;BME280;32064;49.310;8.646;2023-07-31T06:44:12;100341.47;;;22.15;61.52
19736;BME280;32064;49.310;8.646;2023-07-31T06:46:38;100336.09;;;22.15;60.58
19736;BME280;32064;49.310;8.646;2023-07-31T06:49:03;100340.09;;;22.19;60.39
19736;BME280;32064;49.310;8.646;2023-07-31T06:51:29;100335.03;;;22.24;60.66
19736;BME280;32064;49.310;8.646;2023-07-31T06:53:57;100330.97;;;22.28;60.98
19736;BME280;32064;49.310;8.646;2023-07-31T06:56:22;100335.38;;;22.36;60.87
19736;BME280;32064;49.310;8.646;2023-07-31T06:58:48;100331.22;;;22.33;60.21
19736;BME280;32064;49.310;8.646;2023-07-31T07:01:13;100329.56;;;22.32;60.58
19736;BME280;32064;49.310;8.646;2023-07-31T07:03:38;100339.19;;;22.27;60.02
19736;BME280;32064;49.310;8.646;2023-07-31T07:06:04;100340.94;;;22.34;60.22
19736;BME280;32064;49.310;8.646;2023-07-31T07:08:29;100339.91;;;22.35;59.84
19736;BME280;32064;49.310;8.646;2023-07-31T07:10:54;100330.41;;;22.48;60.15
19736;BME280;32064;49.310;8.646;2023-07-31T07:13:21;100331.13;;;22.56;59.53
19736;BME280;32064;49.310;8.646;2023-07-31T07:15:50;100330.97;;;22.79;59.27
19736;BME280;32064;49.310;8.646;2023-07-31T07:18:16;100328.16;;;23.02;59.67
19736;BME280;32064;49.310;8.646;2023-07-31T07:20:50;100330.91;;;23.09;59.30
19736;BME280;32064;49.310;8.646;2023-07-31T07:23:16;100325.25;;;23.19;58.93
19736;BME280;32064;49.310;8.646;2023-07-31T07:25:42;100328.16;;;23.24;59.11
19736;BME280;32064;49.310;8.646;2023-07-31T07:28:08;100335.38;;;23.23;58.54
19736;BME280;32064;49.310;8.646;2023-07-31T07:30:34;100331.69;;;23.24;58.86
19736;BME280;32064;49.310;8.646;2023-07-31T07:32:59;100331.47;;;23.26;58.94
19736;BME280;32064;49.310;8.646;2023-07-31T07:35:24;100318.28;;;23.24;58.87
19736;BME280;32064;49.310;8.646;2023-07-31T07:37:50;100325.28;;;23.25;58.46
19736;BME280;32064;49.310;8.646;2023-07-31T07:40:15;100323.94;;;23.36;58.91
19736;BME280;32064;49.310;8.646;2023-07-31T07:42:41;100328.94;;;23.39;58.77
19736;BME280;32064;49.310;8.646;2023-07-31T07:45:07;100329.56;;;23.41;57.80
19736;BME280;32064;49.310;8.646;2023-07-31T07:47:32;100317.22;;;23.47;57.87
19736;BME280;32064;49.310;8.646;2023-07-31T07:49:58;100323.28;;;23.56;58.10
19736;BME280;32064;49.310;8.646;2023-07-31T07:52:23;100324.97;;;23.63;57.98
19736;BME280;32064;49.310;8.646;2023-07-31T07:54:48;100329.03;;;23.74;57.21
19736;BME280;32064;49.310;8.646;2023-07-31T07:57:14;100321.25;;;23.86;58.03
19736;BME280;32064;49.310;8.646;2023-07-31T07:59:40;100327.91;;;23.90;57.19
19736;BME280;32064;49.310;8.646;2023-07-31T08:02:05;100322.53;;;23.90;56.62
19736;BME280;32064;49.310;8.646;2023-07-31T08:04:31;100323.66;;;24.09;57.01
19736;BME280;32064;49.310;8.646;2023-07-31T08:06:56;100319.16;;;24.16;56.93
19736;BME280;32064;49.310;8.646;2023-07-31T08:09:21;100323.09;;;24.20;56.91
19736;BME280;32064;49.310;8.646;2023-07-31T08:11:47;100315.91;;;24.20;56.77
19736;BME280;32064;49.310;8.646;2023-07-31T08:14:13;100310.50;;;24.20;55.82
19736;BME280;32064;49.310;8.646;2023-07-31T08:16:38;100311.22;;;24.42;55.29
19736;BME280;32064;49.310;8.646;2023-07-31T08:19:03;100310.03;;;24.45;55.56
19736;BME280;32064;49.310;8.646;2023-07-31T08:21:29;100311.22;;;24.42;55.98
19736;BME280;32064;49.310;8.646;2023-07-31T08:23:55;100306.75;;;24.56;54.96
19736;BME280;32064;49.310;8.646;2023-07-31T08:26:20;100305.53;;;24.65;55.22
19736;BME280;32064;49.310;8.646;2023-07-31T08:28:46;100306.63;;;24.84;54.92
19736;BME280;32064;49.310;8.646;2023-07-31T08:31:11;100300.84;;;24.87;54.74
19736;BME280;32064;49.310;8.646;2023-07-31T08:33:38;100300.00;;;24.80;54.03
19736;BME280;32064;49.310;8.646;2023-07-31T08:36:03;100293.41;;;24.83;54.68
19736;BME280;32064;49.310;8.646;2023-07-31T08:38:29;100286.34;;;24.82;54.43
19736;BME280;32064;49.310;8.646;2023-07-31T08:40:57;100280.34;;;24.86;54.27
19736;BME280;32064;49.310;8.646;2023-07-31T08:43:25;100280.84;;;25.17;53.91
19736;BME280;32064;49.310;8.646;2023-07-31T08:45:51;100280.22;;;25.48;52.85
19736;BME280;32064;49.310;8.646;2023-07-31T08:48:17;100270.66;;;25.72;52.95
19736;BME280;32064;49.310;8.646;2023-07-31T08:50:43;100267.50;;;25.82;52.45
19736;BME280;32064;49.310;8.646;2023-07-31T08:53:08;100256.13;;;25.80;52.12
19736;BME280;32064;49.310;8.646;2023-07-31T08:55:35;100264.00;;;25.94;51.60
19736;BME280;32064;49.310;8.646;2023-07-31T08:58:03;100263.09;;;26.14;51.88
19736;BME280;32064;49.310;8.646;2023-07-31T09:00:29;100266.50;;;27.43;49.78
19736;BME280;32064;49.310;8.646;2023-07-31T09:05:29;100258.06;;;27.33;49.75
19736;BME280;32064;49.310;8.646;2023-07-31T09:07:55;100261.16;;;27.36;49.93
19736;BME280;32064;49.310;8.646;2023-07-31T09:10:21;100260.00;;;27.25;50.03
19736;BME280;32064;49.310;8.646;2023-07-31T09:12:47;100245.50;;;27.20;49.07
19736;BME280;32064;49.310;8.646;2023-07-31T09:15:13;100237.69;;;27.73;48.28
19736;BME280;32064;49.310;8.646;2023-07-31T09:17:39;100235.97;;;28.64;46.38
19736;BME280;32064;49.310;8.646;2023-07-31T09:20:19;100248.28;;;30.43;44.48
19736;BME280;32064;49.310;8.646;2023-07-31T09:22:46;100251.28;;;32.16;42.62
19736;BME280;32064;49.310;8.646;2023-07-31T09:25:19;100246.31;;;32.35;40.74
19736;BME280;32064;49.310;8.646;2023-07-31T09:27:53;100240.91;;;32.62;41.01
19736;BME280;32064;49.310;8.646;2023-07-31T09:30:20;100238.22;;;33.31;39.30
19736;BME280;32064;49.310;8.646;2023-07-31T09:32:47;100245.44;;;33.48;39.33
19736;BME280;32064;49.310;8.646;2023-07-31T09:37:39;100246.53;;;34.73;36.15
19736;BME280;32064;49.310;8.646;2023-07-31T09:40:05;100249.47;;;35.79;35.27
19736;BME280;32064;49.310;8.646;2023-07-31T09:42:30;100231.69;;;36.36;34.77
19736;BME280;32064;49.310;8.646;2023-07-31T09:45:07;100232.91;;;36.64;33.44
19736;BME280;32064;49.310;8.646;2023-07-31T09:47:34;100225.44;;;35.60;35.28
19736;BME280;32064;49.310;8.646;2023-07-31T09:49:59;100224.56;;;34.27;35.97
19736;BME280;32064;49.310;8.646;2023-07-31T09:52:26;100210.09;;;33.26;37.47
19736;BME280;32064;49.310;8.646;2023-07-31T09:54:52;100197.28;;;32.35;37.25
19736;BME280;32064;49.310;8.646;2023-07-31T09:57:19;100212.56;;;31.70;38.14
19736;BME280;32064;49.310;8.646;2023-07-31T09:59:47;100206.63;;;31.17;38.96
19736;BME280;32064;49.310;8.646;2023-07-31T10:02:15;100205.75;;;32.60;38.37
19736;BME280;32064;49.310;8.646;2023-07-31T10:04:46;100192.03;;;32.82;36.93
19736;BME280;32064;49.310;8.646;2023-07-31T10:07:16;100190.38;;;32.49;37.56
19736;BME280;32064;49.310;8.646;2023-07-31T10:09:42;100187.94;;;31.82;38.14
19736;BME280;32064;49.310;8.646;2023-07-31T10:12:10;100197.16;;;31.37;39.33
19736;BME280;32064;49.310;8.646;2023-07-31T10:14:38;100191.22;;;31.23;40.22
19736;BME280;32064;49.310;8.646;2023-07-31T10:17:05;100188.06;;;30.63;39.94
19736;BME280;32064;49.310;8.646;2023-07-31T10:19:32;100184.78;;;30.33;40.67
19736;BME280;32064;49.310;8.646;2023-07-31T10:22:00;100181.41;;;29.85;40.94
19736;BME280;32064;49.310;8.646;2023-07-31T10:24:28;100185.41;;;29.83;41.24
19736;BME280;32064;49.310;8.646;2023-07-31T10:26:57;100187.69;;;29.50;40.69
19736;BME280;32064;49.310;8.646;2023-07-31T10:29:24;100180.41;;;29.39;41.45
19736;BME280;32064;49.310;8.646;2023-07-31T10:31:50;100179.56;;;29.15;41.61
19736;BME280;32064;49.310;8.646;2023-07-31T10:34:17;100177.09;;;29.25;41.71
19736;BME280;32064;49.310;8.646;2023-07-31T10:36:42;100176.16;;;29.20;42.39
19736;BME280;32064;49.310;8.646;2023-07-31T10:39:34;100185.72;;;28.57;42.51
19736;BME280;32064;49.310;8.646;2023-07-31T10:42:12;100177.78;;;28.25;43.82
19736;BME280;32064;49.310;8.646;2023-07-31T10:44:38;100177.84;;;28.07;44.18
19736;BME280;32064;49.310;8.646;2023-07-31T10:47:08;100173.50;;;27.87;44.06
19736;BME280;32064;49.310;8.646;2023-07-31T10:49:33;100175.75;;;27.72;44.01
19736;BME280;32064;49.310;8.646;2023-07-31T10:51:59;100166.66;;;27.66;45.33
19736;BME280;32064;49.310;8.646;2023-07-31T10:54:24;100163.56;;;27.63;45.34
19736;BME280;32064;49.310;8.646;2023-07-31T10:56:50;100160.81;;;27.69;45.55
19736;BME280;32064;49.310;8.646;2023-07-31T10:59:15;100163.25;;;27.71;45.64
19736;BME280;32064;49.310;8.646;2023-07-31T11:01:53;100168.97;;;27.63;45.55
19736;BME280;32064;49.310;8.646;2023-07-31T11:04:24;100175.72;;;27.53;45.84
19736;BME280;32064;49.310;8.646;2023-07-31T11:07:00;100170.47;;;27.40;46.06
19736;BME280;32064;49.310;8.646;2023-07-31T11:09:30;100171.81;;;27.31;45.71
19736;BME280;32064;49.310;8.646;2023-07-31T11:11:58;100172.53;;;27.20;46.06
19736;BME280;32064;49.310;8.646;2023-07-31T11:14:24;100168.81;;;27.14;45.85
19736;BME280;32064;49.310;8.646;2023-07-31T11:16:50;100158.84;;;27.15;45.78
19736;BME280;32064;49.310;8.646;2023-07-31T11:19:21;100158.69;;;27.09;45.43
19736;BME280;32064;49.310;8.646;2023-07-31T11:21:47;100148.28;;;27.13;46.17
19736;BME280;32064;49.310;8.646;2023-07-31T11:24:13;100143.47;;;27.15;46.77
19736;BME280;32064;49.310;8.646;2023-07-31T11:26:38;100135.38;;;27.15;47.23
19736;BME280;32064;49.310;8.646;2023-07-31T11:29:11;100131.00;;;27.14;47.39
19736;BME280;32064;49.310;8.646;2023-07-31T11:31:42;100137.03;;;27.16;47.08
19736;BME280;32064;49.310;8.646;2023-07-31T11:34:07;100134.06;;;27.24;46.82
19736;BME280;32064;49.310;8.646;2023-07-31T11:36:33;100132.78;;;27.27;47.32
19736;BME280;32064;49.310;8.646;2023-07-31T11:39:09;100139.38;;;27.31;49.68
19736;BME280;32064;49.310;8.646;2023-07-31T11:41:34;100140.72;;;27.40;47.67
19736;BME280;32064;49.310;8.646;2023-07-31T11:44:00;100136.19;;;27.41;47.65
19736;BME280;32064;49.310;8.646;2023-07-31T11:46:26;100118.75;;;27.37;46.42
19736;BME280;32064;49.310;8.646;2023-07-31T11:48:52;100124.16;;;27.37;46.79
19736;BME280;32064;49.310;8.646;2023-07-31T11:51:20;100120.16;;;27.39;46.85
19736;BME280;32064;49.310;8.646;2023-07-31T11:53:52;100115.59;;;27.40;47.72
19736;BME280;32064;49.310;8.646;2023-07-31T11:56:20;100117.25;;;27.41;46.88
19736;BME280;32064;49.310;8.646;2023-07-31T11:58:47;100113.50;;;27.42;46.47
19736;BME280;32064;49.310;8.646;2023-07-31T12:01:18;100097.94;;;27.37;46.80
19736;BME280;32064;49.310;8.646;2023-07-31T12:03:45;100095.41;;;27.42;46.51
19736;BME280;32064;49.310;8.646;2023-07-31T12:06:11;100109.88;;;27.48;47.63
19736;BME280;32064;49.310;8.646;2023-07-31T12:08:36;100095.69;;;27.52;47.08
19736;BME280;32064;49.310;8.646;2023-07-31T12:11:04;100103.34;;;27.56;47.87
19736;BME280;32064;49.310;8.646;2023-07-31T12:13:31;100091.03;;;27.60;47.49
19736;BME280;32064;49.310;8.646;2023-07-31T12:15:58;100087.03;;;27.62;46.82
19736;BME280;32064;49.310;8.646;2023-07-31T12:18:26;100078.25;;;27.67;47.33
19736;BME280;32064;49.310;8.646;2023-07-31T12:20:57;100080.16;;;27.66;46.95
19736;BME280;32064;49.310;8.646;2023-07-31T12:23:30;100089.53;;;27.64;47.10
19736;BME280;32064;49.310;8.646;2023-07-31T12:26:04;100080.34;;;27.65;47.91
19736;BME280;32064;49.310;8.646;2023-07-31T12:28:30;100071.78;;;27.68;47.47
19736;BME280;32064;49.310;8.646;2023-07-31T12:31:00;100073.00;;;27.72;47.23
19736;BME280;32064;49.310;8.646;2023-07-31T12:33:33;100068.56;;;27.77;47.14
19736;BME280;32064;49.310;8.646;2023-07-31T12:36:01;100063.91;;;27.85;47.44
19736;BME280;32064;49.310;8.646;2023-07-31T12:38:26;100061.69;;;27.93;47.25
19736;BME280;32064;49.310;8.646;2023-07-31T12:40:52;100060.34;;;28.03;46.66
19736;BME280;32064;49.310;8.646;2023-07-31T12:43:17;100052.69;;;28.11;47.19
19736;BME280;32064;49.310;8.646;2023-07-31T12:45:43;100047.53;;;28.21;47.55
19736;BME280;32064;49.310;8.646;2023-07-31T12:48:08;100045.69;;;28.34;46.90
19736;BME280;32064;49.310;8.646;2023-07-31T12:50:33;100043.25;;;28.44;46.72
19736;BME280;32064;49.310;8.646;2023-07-31T12:53:02;100051.28;;;28.51;46.24
19736;BME280;32064;49.310;8.646;2023-07-31T12:55:28;100043.16;;;28.51;45.48